EGUL

RAF Lakenheath Airport

Lakenheath, United Kingdom
METAR EGUL 232210Z AUTO 07006KT 9999 SCT028 00/00 A3014 RMK AO2 SLPNO RVRNO $
Observed Flight Rules
Feb-23 @ 22:10 UTC (22 minutes ago) Visual Flight Rules
Wind Visibility Clouds
70° at 6 knots 10,000+ meters
  • Scattered at 2,800' AGL
Temperatures Readings
Current 0°C / 32°F
Dewpoint 0°C / 32°F
Humidity 100%
Altimeter 30.14" Hg
Pressure 1021 hPa
Elevation 10
METAR EGUL 232210Z AUTO 07006KT 9999 SCT028 00/00 A3014 RMK AO2 SLPNO RVRNO $
Observed Flight Rules
Feb-23 @ 22:10 UTC
(22 minutes ago)
VFR
Wind Visibility
70° at 6 knots 10,000+ meters
Clouds
  • Scattered at 2,800' AGL
Temperature Dewpoint
0°C / 32°F 0°C / 32°F
Humidity Altimeter Pressure
100% 30.14" Hg 1021 hPa